createdAt,value
2023-03-01T00:01:07.228Z,4.60
2023-03-01T00:03:34.429Z,4.60
2023-03-01T00:06:01.486Z,4.60
2023-03-01T00:08:29.168Z,4.50
2023-03-01T00:11:04.285Z,4.50
2023-03-01T00:13:31.122Z,4.50
2023-03-01T00:15:57.868Z,4.50
2023-03-01T00:18:24.677Z,4.50
2023-03-01T00:20:55.600Z,4.50
2023-03-01T00:23:23.019Z,4.50
2023-03-01T00:25:49.961Z,4.40
2023-03-01T00:28:17.107Z,4.40
2023-03-01T00:30:44.564Z,4.40
2023-03-01T00:33:11.295Z,4.40
2023-03-01T00:35:38.185Z,4.40
2023-03-01T00:38:04.987Z,4.40
2023-03-01T00:40:34.083Z,4.40
2023-03-01T00:43:01.374Z,4.30
2023-03-01T00:45:28.306Z,4.30
2023-03-01T00:47:55.325Z,4.30
2023-03-01T00:50:22.364Z,4.30
2023-03-01T00:52:53.672Z,4.30
2023-03-01T00:55:20.473Z,4.30
2023-03-01T00:57:47.210Z,4.30
2023-03-01T01:00:14.285Z,4.30
2023-03-01T01:02:40.936Z,4.20
2023-03-01T01:05:08.351Z,4.20
2023-03-01T01:07:35.247Z,4.20
2023-03-01T01:10:01.928Z,4.20
2023-03-01T01:12:28.764Z,4.10
2023-03-01T01:14:55.360Z,4.10
2023-03-01T01:17:22.084Z,4.10
2023-03-01T01:19:49.104Z,4.10
2023-03-01T01:22:15.791Z,4.10
2023-03-01T01:24:42.660Z,4.10
2023-03-01T01:27:09.339Z,4.10
2023-03-01T01:29:35.942Z,4.10
2023-03-01T01:32:02.656Z,4.00
2023-03-01T01:34:29.358Z,4.00
2023-03-01T01:36:56.090Z,4.00
2023-03-01T01:39:23.528Z,4.00
2023-03-01T01:41:50.357Z,4.00
2023-03-01T01:44:27.122Z,4.00
2023-03-01T01:46:59.681Z,3.90
2023-03-01T01:49:37.334Z,3.90
2023-03-01T01:52:10.387Z,3.90
2023-03-01T01:54:57.680Z,3.90
2023-03-01T01:57:35.281Z,3.90
2023-03-01T02:00:07.739Z,3.80
2023-03-01T02:02:34.707Z,3.80
2023-03-01T02:05:13.718Z,3.80
2023-03-01T02:07:40.952Z,3.80
2023-03-01T02:10:08.004Z,3.80
2023-03-01T02:12:35.370Z,3.80
2023-03-01T02:15:02.061Z,3.80
2023-03-01T02:17:28.745Z,3.70
2023-03-01T02:20:09.674Z,3.70
2023-03-01T02:22:39.386Z,3.70
2023-03-01T02:25:20.742Z,3.70
2023-03-01T02:27:56.270Z,3.70
2023-03-01T02:30:24.825Z,3.70
2023-03-01T02:32:55.601Z,3.60
2023-03-01T02:35:22.625Z,3.60
2023-03-01T02:37:49.387Z,3.60
2023-03-01T02:40:19.755Z,3.60
2023-03-01T02:42:54.784Z,3.60
2023-03-01T02:45:22.209Z,3.60
2023-03-01T02:47:48.845Z,3.60
2023-03-01T02:50:30.641Z,3.60
2023-03-01T02:52:57.178Z,3.50
2023-03-01T02:55:23.964Z,3.50
2023-03-01T02:57:51.952Z,3.50
2023-03-01T03:00:40.638Z,3.50
2023-03-01T03:03:08.088Z,3.50
2023-03-01T03:05:34.810Z,3.50
2023-03-01T03:08:02.914Z,3.50
2023-03-01T03:10:34.643Z,3.50
2023-03-01T03:13:04.874Z,3.40
2023-03-01T03:15:32.023Z,3.40
2023-03-01T03:17:59.729Z,3.40
2023-03-01T03:20:29.236Z,3.40
2023-03-01T03:22:57.909Z,3.40
2023-03-01T03:25:25.443Z,3.40
2023-03-01T03:27:57.944Z,3.40
2023-03-01T03:30:30.760Z,3.40
2023-03-01T03:32:59.240Z,3.40
2023-03-01T03:35:27.417Z,3.40
2023-03-01T03:38:02.980Z,3.40
2023-03-01T03:40:33.084Z,3.30
2023-03-01T03:42:59.721Z,3.30
2023-03-01T03:45:26.461Z,3.30
2023-03-01T03:47:53.105Z,3.30
2023-03-01T03:50:20.254Z,3.30
2023-03-01T03:52:46.937Z,3.30
2023-03-01T03:55:13.845Z,3.30
2023-03-01T03:57:43.929Z,3.30
2023-03-01T04:00:15.829Z,3.30
2023-03-01T04:02:43.875Z,3.20
2023-03-01T04:05:13.207Z,3.20
2023-03-01T04:07:39.987Z,3.20
2023-03-01T04:10:10.003Z,3.20
2023-03-01T04:12:37.291Z,3.20
2023-03-01T04:15:15.278Z,3.20
2023-03-01T04:17:46.262Z,3.20
2023-03-01T04:20:18.791Z,3.20
2023-03-01T04:22:47.937Z,3.20
2023-03-01T04:25:15.555Z,3.10
2023-03-01T04:27:42.316Z,3.10
2023-03-01T04:30:10.072Z,3.10
2023-03-01T04:32:36.840Z,3.10
2023-03-01T04:35:04.190Z,3.10
2023-03-01T04:37:30.857Z,3.10
2023-03-01T04:39:57.569Z,3.10
2023-03-01T04:42:24.251Z,3.10
2023-03-01T04:44:52.349Z,3.10
2023-03-01T04:47:19.007Z,3.00
2023-03-01T04:49:45.703Z,3.00
2023-03-01T04:52:12.355Z,3.00
2023-03-01T04:54:38.943Z,3.00
2023-03-01T04:57:05.554Z,3.00
2023-03-01T04:59:32.232Z,3.00
2023-03-01T05:01:58.956Z,3.00
2023-03-01T05:04:26.080Z,3.00
2023-03-01T05:06:54.558Z,3.00
2023-03-01T05:09:21.201Z,2.90
2023-03-01T05:11:47.952Z,2.90
2023-03-01T05:14:14.598Z,2.90
2023-03-01T05:16:41.240Z,2.90
2023-03-01T05:19:16.257Z,2.90
2023-03-01T05:22:04.656Z,2.90
2023-03-01T05:24:34.085Z,2.90
2023-03-01T05:27:01.762Z,2.90
2023-03-01T05:29:30.105Z,2.80
2023-03-01T05:32:02.047Z,2.80
2023-03-01T05:34:34.164Z,2.80
2023-03-01T05:37:01.073Z,2.80
2023-03-01T05:39:29.333Z,2.80
2023-03-01T05:41:57.899Z,2.80
2023-03-01T05:44:25.106Z,2.80
2023-03-01T05:46:52.520Z,2.70
2023-03-01T05:49:19.718Z,2.80
2023-03-01T05:51:51.141Z,2.70
2023-03-01T05:54:19.058Z,2.70
2023-03-01T05:56:46.231Z,2.70
2023-03-01T05:59:13.051Z,2.70
2023-03-01T06:01:39.734Z,2.70
2023-03-01T06:04:06.689Z,2.70
2023-03-01T06:06:38.598Z,2.70
2023-03-01T06:09:10.283Z,2.60
2023-03-01T06:11:37.667Z,2.60
2023-03-01T06:14:05.008Z,2.60
2023-03-01T06:16:31.987Z,2.60
2023-03-01T06:18:58.904Z,2.60
2023-03-01T06:21:25.592Z,2.60
2023-03-01T06:23:53.051Z,2.60
2023-03-01T06:26:20.352Z,2.50
2023-03-01T06:28:47.247Z,2.50
2023-03-01T06:31:14.106Z,2.50
2023-03-01T06:33:41.013Z,2.50
2023-03-01T06:36:09.033Z,2.50
2023-03-01T06:38:35.826Z,2.50
2023-03-01T06:41:03.029Z,2.50
2023-03-01T06:43:29.754Z,2.50
2023-03-01T06:45:56.546Z,2.50
2023-03-01T06:48:23.301Z,2.50
2023-03-01T06:50:50.143Z,2.50
2023-03-01T06:53:16.855Z,2.40
2023-03-01T06:55:43.783Z,2.40
2023-03-01T06:58:11.952Z,2.30
2023-03-01T07:00:38.755Z,2.40
2023-03-01T07:03:05.561Z,2.30
2023-03-01T07:05:34.327Z,2.30
2023-03-01T07:08:00.992Z,2.40
2023-03-01T07:10:27.937Z,2.40
2023-03-01T07:12:58.730Z,2.40
2023-03-01T07:15:26.762Z,2.40
2023-03-01T07:17:53.797Z,2.40
2023-03-01T07:20:26.313Z,2.40
2023-03-01T07:22:54.752Z,2.40
2023-03-01T07:25:21.656Z,2.50
2023-03-01T07:27:55.159Z,2.50
2023-03-01T07:30:22.856Z,2.50
2023-03-01T07:32:49.728Z,2.50
2023-03-01T07:35:16.748Z,2.50
2023-03-01T07:37:43.394Z,2.50
2023-03-01T07:40:11.283Z,2.50
2023-03-01T07:42:38.134Z,2.60
2023-03-01T07:45:06.662Z,2.60
2023-03-01T07:47:33.726Z,2.70
2023-03-01T07:50:02.128Z,2.80
2023-03-01T07:52:29.152Z,2.90
2023-03-01T07:54:55.898Z,2.90
2023-03-01T07:57:22.580Z,3.00
2023-03-01T07:59:49.237Z,3.10
2023-03-01T08:02:16.184Z,3.10
2023-03-01T08:04:43.511Z,3.20
2023-03-01T08:07:10.195Z,3.30
2023-03-01T08:09:38.462Z,3.40
2023-03-01T08:12:05.917Z,3.40
2023-03-01T08:14:35.660Z,3.50
2023-03-01T08:17:04.051Z,3.70
2023-03-01T08:19:31.520Z,3.70
2023-03-01T08:21:59.454Z,4.00
2023-03-01T08:24:26.587Z,4.00
2023-03-01T08:26:53.375Z,4.10
2023-03-01T08:29:20.299Z,4.20
2023-03-01T08:31:47.473Z,4.30
2023-03-01T08:34:16.511Z,4.40
2023-03-01T08:36:45.408Z,4.70
2023-03-01T08:39:15.151Z,4.80
2023-03-01T08:41:42.352Z,4.80
2023-03-01T08:44:11.465Z,4.80
2023-03-01T08:46:41.334Z,5.00
2023-03-01T08:49:19.335Z,5.00
2023-03-01T08:51:48.134Z,5.30
2023-03-01T08:54:19.122Z,5.30
2023-03-01T08:56:46.136Z,5.60
2023-03-01T08:59:13.901Z,5.70
2023-03-01T09:01:41.459Z,5.80
2023-03-01T09:06:35.343Z,6.20
2023-03-01T09:09:03.578Z,6.10
2023-03-01T09:11:30.745Z,6.20
2023-03-01T09:13:58.081Z,6.20
2023-03-01T09:16:24.993Z,6.30
2023-03-01T09:18:53.390Z,6.50
2023-03-01T09:21:37.293Z,6.50
2023-03-01T09:24:06.937Z,6.30
2023-03-01T09:26:33.959Z,6.60
2023-03-01T09:29:00.690Z,6.60
2023-03-01T09:31:27.404Z,6.80
2023-03-01T09:33:55.664Z,6.80
2023-03-01T09:36:24.656Z,6.90
2023-03-01T09:38:53.294Z,7.10
2023-03-01T09:41:32.769Z,7.00
2023-03-01T09:44:37.968Z,7.20
2023-03-01T09:47:05.689Z,7.00
2023-03-01T09:49:36.403Z,7.20
2023-03-01T09:52:27.737Z,7.30
2023-03-01T09:54:59.399Z,7.50
2023-03-01T09:57:33.707Z,7.50
2023-03-01T10:00:15.524Z,7.50
2023-03-01T10:02:50.615Z,7.70
2023-03-01T10:05:41.321Z,7.70
2023-03-01T10:08:34.476Z,7.80
2023-03-01T10:11:01.713Z,7.80
2023-03-01T10:13:50.178Z,8.00
2023-03-01T10:16:21.953Z,8.00
2023-03-01T10:18:59.463Z,8.10
2023-03-01T10:21:30.848Z,8.40
2023-03-01T10:24:11.439Z,8.30
2023-03-01T10:26:49.414Z,8.50
2023-03-01T10:29:16.389Z,8.50
2023-03-01T10:31:52.059Z,8.70
2023-03-01T10:34:22.180Z,8.80
2023-03-01T10:36:52.295Z,9.00
2023-03-01T10:39:26.126Z,8.90
2023-03-01T10:41:57.672Z,9.00
2023-03-01T10:44:46.777Z,9.00
2023-03-01T10:47:22.998Z,9.10
2023-03-01T10:49:59.978Z,9.30
2023-03-01T10:52:38.556Z,9.40
2023-03-01T10:55:14.655Z,9.50
2023-03-01T10:57:42.988Z,9.50
2023-03-01T11:00:20.738Z,9.50
2023-03-01T11:03:14.186Z,9.70
2023-03-01T11:05:58.711Z,9.90
2023-03-01T11:08:37.970Z,10.00
2023-03-01T11:11:10.691Z,10.00
2023-03-01T11:13:40.367Z,10.30
2023-03-01T11:16:11.510Z,10.30
2023-03-01T11:18:47.533Z,10.30
2023-03-01T11:21:16.873Z,10.40
2023-03-01T11:23:46.657Z,10.60
2023-03-01T11:26:15.068Z,10.70
2023-03-01T11:28:45.697Z,10.70
2023-03-01T11:31:13.377Z,10.70
2023-03-01T11:33:49.979Z,10.90
2023-03-01T11:36:16.721Z,11.00
2023-03-01T11:38:43.932Z,11.20
2023-03-01T11:41:17.939Z,11.20
2023-03-01T11:44:00.031Z,11.30
2023-03-01T11:46:32.562Z,11.30
2023-03-01T11:49:23.660Z,11.50
2023-03-01T11:52:02.875Z,11.50
2023-03-01T11:54:32.419Z,11.60
2023-03-01T11:57:05.508Z,11.70
2023-03-01T11:59:50.828Z,11.70
2023-03-01T12:02:59.432Z,11.70
2023-03-01T12:06:04.392Z,11.80
2023-03-01T12:08:51.906Z,11.80
2023-03-01T12:11:22.461Z,11.90
2023-03-01T12:14:10.331Z,12.00
2023-03-01T12:17:02.351Z,12.10
2023-03-01T12:19:48.408Z,12.20
2023-03-01T12:22:31.755Z,12.20
2023-03-01T12:25:21.681Z,12.30
2023-03-01T12:28:10.534Z,12.30
2023-03-01T12:30:40.175Z,12.40
2023-03-01T12:33:25.836Z,12.40
2023-03-01T12:36:24.566Z,12.50
2023-03-01T12:39:06.649Z,12.60
2023-03-01T12:41:45.054Z,12.60
2023-03-01T12:44:34.297Z,12.90
2023-03-01T12:47:25.491Z,12.90
2023-03-01T12:50:00.337Z,13.00
2023-03-01T12:52:41.321Z,12.90
2023-03-01T12:55:30.204Z,13.10
2023-03-01T12:58:27.156Z,13.10
2023-03-01T13:01:24.367Z,13.10
2023-03-01T13:04:17.020Z,13.10
2023-03-01T13:07:07.367Z,13.40
2023-03-01T13:10:19.393Z,13.30
2023-03-01T13:12:51.977Z,13.50
2023-03-01T13:15:24.646Z,13.50
2023-03-01T13:17:54.152Z,13.30
2023-03-01T13:20:27.101Z,13.40
2023-03-01T13:23:25.792Z,13.20
2023-03-01T13:26:01.581Z,13.60
2023-03-01T13:28:47.459Z,13.50
2023-03-01T13:31:17.106Z,13.80
2023-03-01T13:33:47.894Z,13.80
2023-03-01T13:36:37.069Z,13.70
2023-03-01T13:39:03.907Z,13.70
2023-03-01T13:41:40.178Z,13.80
2023-03-01T13:44:14.139Z,13.90
2023-03-01T13:46:41.229Z,14.00
2023-03-01T13:49:15.797Z,14.10
2023-03-01T13:51:42.776Z,14.20
2023-03-01T13:54:15.175Z,14.10
2023-03-01T13:56:42.676Z,13.90
2023-03-01T13:59:23.530Z,14.00
2023-03-01T14:01:55.953Z,14.20
2023-03-01T14:04:30.032Z,14.00
2023-03-01T14:07:12.009Z,14.40
2023-03-01T14:09:45.727Z,14.30
2023-03-01T14:12:25.669Z,14.20
2023-03-01T14:14:55.460Z,14.10
2023-03-01T14:17:33.997Z,14.10
2023-03-01T14:20:05.369Z,14.30
2023-03-01T14:22:36.598Z,14.40
2023-03-01T14:25:18.119Z,14.40
2023-03-01T14:27:45.537Z,14.40
2023-03-01T14:30:18.636Z,14.40
2023-03-01T14:33:16.049Z,14.30
2023-03-01T14:35:42.783Z,14.30
2023-03-01T14:38:22.070Z,14.30
2023-03-01T14:40:56.089Z,14.30
2023-03-01T14:43:25.265Z,14.30
2023-03-01T14:45:52.588Z,14.20
2023-03-01T14:48:20.842Z,14.20
2023-03-01T14:50:48.562Z,14.30
2023-03-01T14:53:30.911Z,14.30
2023-03-01T14:56:05.734Z,14.30
2023-03-01T14:58:35.250Z,14.30
2023-03-01T15:01:04.887Z,14.30
2023-03-01T15:03:46.357Z,14.20
2023-03-01T15:06:16.798Z,14.20
2023-03-01T15:08:47.801Z,14.20
2023-03-01T15:11:14.920Z,14.20
2023-03-01T15:13:41.935Z,14.10
2023-03-01T15:16:11.915Z,13.70
2023-03-01T15:18:43.778Z,13.90
2023-03-01T15:21:26.522Z,14.00
2023-03-01T15:24:23.425Z,14.00
2023-03-01T15:26:58.959Z,13.90
2023-03-01T15:29:31.708Z,13.80
2023-03-01T15:32:07.204Z,13.80
2023-03-01T15:34:37.984Z,13.80
2023-03-01T15:37:09.034Z,13.70
2023-03-01T15:39:40.273Z,13.70
2023-03-01T15:42:34.418Z,13.70
2023-03-01T15:45:18.384Z,13.60
2023-03-01T15:47:54.265Z,13.60
2023-03-01T15:50:58.091Z,13.50
2023-03-01T15:53:25.265Z,13.50
2023-03-01T15:55:51.937Z,13.50
2023-03-01T15:58:22.239Z,13.40
2023-03-01T16:01:00.933Z,13.30
2023-03-01T16:03:29.231Z,13.30
2023-03-01T16:05:55.966Z,13.30
2023-03-01T16:08:22.603Z,13.30
2023-03-01T16:10:52.209Z,13.20
2023-03-01T16:13:19.103Z,13.20
2023-03-01T16:15:46.010Z,13.20
2023-03-01T16:18:13.053Z,13.10
2023-03-01T16:20:40.117Z,13.10
2023-03-01T16:23:09.096Z,13.00
2023-03-01T16:25:37.275Z,12.90
2023-03-01T16:28:10.311Z,12.90
2023-03-01T16:30:39.045Z,12.80
2023-03-01T16:33:30.047Z,12.80
2023-03-01T16:35:55.750Z,12.80
2023-03-01T16:38:22.682Z,12.70
2023-03-01T16:40:51.737Z,12.70
2023-03-01T16:43:18.856Z,12.60
2023-03-01T16:45:46.452Z,12.50
2023-03-01T16:48:13.761Z,12.50
2023-03-01T16:50:40.972Z,12.40
2023-03-01T16:53:08.073Z,12.40
2023-03-01T16:55:34.867Z,12.40
2023-03-01T16:58:02.283Z,12.30
2023-03-01T17:00:29.099Z,12.30
2023-03-01T17:02:56.028Z,12.20
2023-03-01T17:05:24.883Z,12.20
2023-03-01T17:07:52.307Z,12.10
2023-03-01T17:10:19.910Z,12.10
2023-03-01T17:12:50.458Z,12.00
2023-03-01T17:15:17.355Z,12.00
2023-03-01T17:17:44.115Z,11.90
2023-03-01T17:20:11.868Z,11.80
2023-03-01T17:22:38.544Z,11.80
2023-03-01T17:25:08.008Z,11.80
2023-03-01T17:27:36.202Z,11.70
2023-03-01T17:30:04.467Z,11.70
2023-03-01T17:32:31.248Z,11.60
2023-03-01T17:34:58.071Z,11.50
2023-03-01T17:37:25.160Z,11.40
2023-03-01T17:39:51.879Z,11.40
2023-03-01T17:42:18.622Z,11.30
2023-03-01T17:44:45.302Z,11.30
2023-03-01T17:47:12.296Z,11.20
2023-03-01T17:49:39.129Z,11.20
2023-03-01T17:52:05.994Z,11.10
2023-03-01T17:54:33.610Z,11.10
2023-03-01T17:57:00.627Z,11.00
2023-03-01T17:59:33.394Z,10.90
2023-03-01T18:02:01.717Z,10.90
2023-03-01T18:04:29.195Z,10.80
2023-03-01T18:06:56.408Z,10.80
2023-03-01T18:09:23.202Z,10.70
2023-03-01T18:11:50.072Z,10.70
2023-03-01T18:14:16.801Z,10.60
2023-03-01T18:16:43.799Z,10.60
2023-03-01T18:19:11.319Z,10.50
2023-03-01T18:21:38.104Z,10.50
2023-03-01T18:24:05.219Z,10.40
2023-03-01T18:26:32.249Z,10.40
2023-03-01T18:29:01.426Z,10.40
2023-03-01T18:31:32.691Z,10.30
2023-03-01T18:34:01.404Z,10.30
2023-03-01T18:36:35.157Z,10.20
2023-03-01T18:39:04.355Z,10.20
2023-03-01T18:41:32.950Z,10.10
2023-03-01T18:44:01.673Z,10.10
2023-03-01T18:46:28.440Z,10.10
2023-03-01T18:48:56.131Z,10.00
2023-03-01T18:51:25.861Z,10.00
2023-03-01T18:53:52.936Z,9.90
2023-03-01T18:56:19.622Z,9.90
2023-03-01T18:58:46.330Z,9.80
2023-03-01T19:01:22.035Z,9.80
2023-03-01T19:03:49.078Z,9.70
2023-03-01T19:06:16.385Z,9.70
2023-03-01T19:08:44.509Z,9.70
2023-03-01T19:11:13.310Z,9.70
2023-03-01T19:13:41.122Z,9.60
2023-03-01T19:16:11.378Z,9.60
2023-03-01T19:18:42.869Z,9.50
2023-03-01T19:21:11.705Z,9.50
2023-03-01T19:23:39.386Z,9.40
2023-03-01T19:26:09.134Z,9.40
2023-03-01T19:28:39.213Z,9.40
2023-03-01T19:31:10.139Z,9.30
2023-03-01T19:33:37.510Z,9.30
2023-03-01T19:36:04.650Z,9.20
2023-03-01T19:38:31.768Z,9.20
2023-03-01T19:40:58.917Z,9.20
2023-03-01T19:43:27.627Z,9.10
2023-03-01T19:45:55.400Z,9.10
2023-03-01T19:48:22.681Z,9.10
2023-03-01T19:50:51.669Z,9.00
2023-03-01T19:53:18.663Z,9.00
2023-03-01T19:55:45.399Z,8.90
2023-03-01T19:58:12.206Z,8.90
2023-03-01T20:00:40.365Z,8.90
2023-03-01T20:03:07.096Z,8.80
2023-03-01T20:05:35.644Z,8.80
2023-03-01T20:08:02.786Z,8.80
2023-03-01T20:10:31.373Z,8.70
2023-03-01T20:12:58.448Z,8.70
2023-03-01T20:15:25.786Z,8.70
2023-03-01T20:17:52.583Z,8.60
2023-03-01T20:20:19.389Z,8.60
2023-03-01T20:22:46.200Z,8.60
2023-03-01T20:25:12.990Z,8.50
2023-03-01T20:27:39.694Z,8.50
2023-03-01T20:30:07.118Z,8.50
2023-03-01T20:32:34.148Z,8.40
2023-03-01T20:35:00.864Z,8.40
2023-03-01T20:37:30.587Z,8.40
2023-03-01T20:39:57.679Z,8.30
2023-03-01T20:42:24.357Z,8.30
2023-03-01T20:44:51.221Z,8.30
2023-03-01T20:47:20.490Z,8.20
2023-03-01T20:49:47.303Z,8.20
2023-03-01T20:52:14.399Z,8.20
2023-03-01T20:54:41.050Z,8.10
2023-03-01T20:57:07.935Z,8.10
2023-03-01T20:59:35.052Z,8.10
2023-03-01T21:02:01.795Z,8.00
2023-03-01T21:04:28.506Z,8.00
2023-03-01T21:06:55.339Z,8.00
2023-03-01T21:09:22.147Z,8.00
2023-03-01T21:11:52.639Z,7.90
2023-03-01T21:14:19.768Z,7.90
2023-03-01T21:16:46.724Z,7.80
2023-03-01T21:19:13.511Z,7.90
2023-03-01T21:21:40.446Z,7.80
2023-03-01T21:24:10.369Z,7.80
2023-03-01T21:26:37.839Z,7.80
2023-03-01T21:29:04.883Z,7.70
2023-03-01T21:31:34.989Z,7.70
2023-03-01T21:34:04.778Z,7.70
2023-03-01T21:36:32.907Z,7.70
2023-03-01T21:39:04.156Z,7.60
2023-03-01T21:41:36.208Z,7.60
2023-03-01T21:44:04.678Z,7.60
2023-03-01T21:46:34.583Z,7.50
2023-03-01T21:49:02.699Z,7.50
2023-03-01T21:51:30.573Z,7.50
2023-03-01T21:53:58.643Z,7.50
2023-03-01T21:56:28.394Z,7.50
2023-03-01T21:58:55.370Z,7.40
2023-03-01T22:01:25.824Z,7.40
2023-03-01T22:03:53.161Z,7.40
2023-03-01T22:06:23.089Z,7.30
2023-03-01T22:09:01.605Z,7.30
2023-03-01T22:11:28.593Z,7.30
2023-03-01T22:13:56.778Z,7.30
2023-03-01T22:16:26.435Z,7.30
2023-03-01T22:18:53.724Z,7.20
2023-03-01T22:21:21.535Z,7.20
2023-03-01T22:23:48.341Z,7.20
2023-03-01T22:26:30.717Z,7.10
2023-03-01T22:28:59.588Z,7.10
2023-03-01T22:31:27.108Z,7.10
2023-03-01T22:33:54.968Z,7.10
2023-03-01T22:36:22.242Z,7.00
2023-03-01T22:38:49.030Z,7.00
2023-03-01T22:41:15.867Z,7.00
2023-03-01T22:43:42.794Z,6.90
2023-03-01T22:46:19.697Z,6.90
2023-03-01T22:48:47.773Z,6.90
2023-03-01T22:51:20.881Z,6.90
2023-03-01T22:53:48.030Z,6.80
2023-03-01T22:56:22.223Z,6.80
2023-03-01T22:58:49.463Z,6.80
2023-03-01T23:01:22.523Z,6.80
2023-03-01T23:03:50.018Z,6.80
2023-03-01T23:06:18.719Z,6.70
2023-03-01T23:08:55.989Z,6.70
2023-03-01T23:11:24.599Z,6.70
2023-03-01T23:13:51.970Z,6.70
2023-03-01T23:16:26.166Z,6.70
2023-03-01T23:18:59.143Z,6.70
2023-03-01T23:21:26.651Z,6.60
2023-03-01T23:23:55.387Z,6.60
2023-03-01T23:26:22.564Z,6.60
2023-03-01T23:28:51.042Z,6.60
2023-03-01T23:31:18.350Z,6.60
2023-03-01T23:33:46.429Z,6.50
2023-03-01T23:36:25.299Z,6.50
2023-03-01T23:38:55.834Z,6.50
2023-03-01T23:41:26.038Z,6.50
2023-03-01T23:43:56.138Z,6.50
2023-03-01T23:46:25.503Z,6.40
2023-03-01T23:48:53.672Z,6.40
2023-03-01T23:51:20.853Z,6.40
2023-03-01T23:53:55.416Z,6.40
2023-03-01T23:56:27.319Z,6.30
2023-03-01T23:58:56.066Z,6.30
